Time;durP1;ratioP1;P1;durP2;ratioP2;P2;SDS_P1;SDS_P2;PMS_P1;PMS_P2;Temp;Humidity;BMP_temperature;BMP_pressure;BME280_temperature;BME280_humidity;BME280_pressure;Samples;Min_cycle;Max_cycle;Signal;HPM_P1;HPM_P2
2022/08/18 00:02:16;;;;;;;8.82;4.38;;;;;;;23.92;47.99;101335.50;4975271;28;20516;-85
2022/08/18 00:04:43;;;;;;;6.20;4.00;;;;;;;23.93;47.94;101323.16;4975118;28;20379;-85
2022/08/18 00:07:11;;;;;;;11.48;4.32;;;;;;;23.94;48.25;101315.59;4975119;28;20031;-85
2022/08/18 00:09:39;;;;;;;9.48;4.78;;;;;;;23.94;48.34;101310.00;4975169;28;20418;-85
2022/08/18 00:12:12;;;;;;;10.15;4.55;;;;;;;23.95;48.29;101306.81;4975058;28;20030;-86
2022/08/18 00:14:38;;;;;;;11.10;5.20;;;;;;;23.98;48.05;101308.84;4975043;28;20038;-84
2022/08/18 00:17:04;;;;;;;12.10;5.40;;;;;;;24.00;48.02;101300.06;4975083;28;20459;-84
2022/08/18 00:19:29;;;;;;;8.30;4.97;;;;;;;23.96;48.31;101300.06;4974986;28;20097;-85
2022/08/18 00:21:55;;;;;;;10.63;4.22;;;;;;;23.98;48.23;101302.47;4974800;28;20466;-86
2022/08/18 00:24:20;;;;;;;8.13;4.30;;;;;;;23.89;48.29;101299.22;4974669;28;20031;-85
2022/08/18 00:26:46;;;;;;;8.20;5.28;;;;;;;23.88;48.50;101297.59;4974683;28;20031;-85
2022/08/18 00:29:12;;;;;;;10.52;4.53;;;;;;;23.75;48.48;101286.00;4974362;28;20490;-84
2022/08/18 00:31:37;;;;;;;11.63;4.65;;;;;;;23.73;48.42;101283.59;4975975;28;20161;-86
2022/08/18 00:34:03;;;;;;;9.15;4.13;;;;;;;23.83;47.93;101284.03;4974609;28;20058;-84
2022/08/18 00:36:31;;;;;;;10.23;4.50;;;;;;;23.94;47.11;101279.28;4974588;28;20528;-85
2022/08/18 00:38:56;;;;;;;10.50;4.47;;;;;;;23.97;46.91;101273.75;4974658;28;20066;-84
2022/08/18 00:41:25;;;;;;;9.25;5.05;;;;;;;23.90;46.88;101273.72;4974135;28;20058;-84
2022/08/18 00:43:51;;;;;;;7.35;3.95;;;;;;;23.94;46.45;101262.56;4974057;28;20125;-83
2022/08/18 00:46:28;;;;;;;9.15;3.97;;;;;;;23.89;46.36;101255.38;4974441;28;20031;-85
2022/08/18 00:48:54;;;;;;;11.02;4.75;;;;;;;23.88;45.88;101252.94;4974424;28;20026;-84
2022/08/18 00:51:36;;;;;;;12.65;5.07;;;;;;;23.87;46.10;101251.34;4974089;28;20030;-85
2022/08/18 00:54:07;;;;;;;10.63;4.70;;;;;;;23.87;46.05;101257.72;4974267;28;20026;-84
2022/08/18 00:56:40;;;;;;;10.32;4.40;;;;;;;23.82;45.75;101248.97;4974259;28;20061;-85
2022/08/18 00:59:11;;;;;;;7.88;4.32;;;;;;;23.80;46.30;101252.94;4974021;28;20030;-85
2022/08/18 01:01:40;;;;;;;12.93;5.32;;;;;;;23.74;45.99;101242.53;4974179;28;20489;-85
2022/08/18 01:04:13;;;;;;;7.85;4.35;;;;;;;23.71;45.85;101243.31;4974177;28;20035;-84
2022/08/18 01:06:51;;;;;;;8.60;4.47;;;;;;;23.69;46.11;101243.69;4973472;28;20085;-85
2022/08/18 01:09:17;;;;;;;13.98;4.90;;;;;;;23.68;45.51;101236.53;4973748;28;20109;-85
2022/08/18 01:11:43;;;;;;;9.40;4.85;;;;;;;23.67;45.79;101234.13;4973745;28;20035;-85
2022/08/18 01:14:14;;;;;;;8.45;4.40;;;;;;;23.65;45.50;101240.09;4973651;28;20026;-84
2022/08/18 01:22:18;;;;;;;6.97;4.93;;;;;;;23.66;45.04;101229.75;4975085;28;20041;-85
2022/08/18 01:27:30;;;;;;;7.00;4.03;;;;;;;23.65;44.96;101228.13;4974885;28;20114;-85
2022/08/18 01:30:01;;;;;;;8.23;4.40;;;;;;;23.67;44.70;101234.94;4973267;28;20042;-84
2022/08/18 01:32:27;;;;;;;7.90;4.70;;;;;;;23.65;44.47;101230.91;4973271;28;20030;-84
2022/08/18 01:34:53;;;;;;;8.18;3.97;;;;;;;23.62;44.70;101232.50;4973267;28;20482;-85
2022/08/18 01:37:23;;;;;;;7.40;4.10;;;;;;;23.61;44.52;101222.53;4972958;28;20117;-84
2022/08/18 01:39:49;;;;;;;8.07;4.35;;;;;;;23.62;44.65;101214.97;4974604;28;20470;-85
2022/08/18 01:42:16;;;;;;;5.97;3.70;;;;;;;23.63;44.12;101213.78;4974724;28;20031;-85
2022/08/18 01:44:42;;;;;;;8.85;4.32;;;;;;;23.47;44.51;101202.91;4973233;28;20022;-85
2022/08/18 01:47:10;;;;;;;5.43;4.13;;;;;;;23.47;44.36;101208.47;4973134;28;20081;-85
2022/08/18 01:49:36;;;;;;;7.18;4.30;;;;;;;23.39;44.09;101196.50;4973316;28;20441;-85
2022/08/18 01:52:05;;;;;;;6.43;4.18;;;;;;;23.51;43.94;101192.59;4973240;28;20119;-85
2022/08/18 01:54:31;;;;;;;6.45;4.15;;;;;;;23.50;43.89;101193.75;4973319;28;20031;-85
2022/08/18 01:56:58;;;;;;;5.95;3.78;;;;;;;23.49;43.47;101183.78;4973067;28;20022;-85
2022/08/18 01:59:24;;;;;;;7.32;4.40;;;;;;;23.49;43.65;101178.22;4989217;28;20371;-85
2022/08/18 02:01:52;;;;;;;7.78;4.93;;;;;;;23.39;43.52;101178.97;4972964;28;20402;-84
2022/08/18 02:04:18;;;;;;;8.20;3.90;;;;;;;23.35;43.58;101173.38;4967948;28;20033;-86
2022/08/18 02:06:43;;;;;;;6.95;4.13;;;;;;;23.30;43.58;101172.94;4973218;28;20058;-86
2022/08/18 02:09:09;;;;;;;6.60;4.20;;;;;;;23.26;43.75;101173.69;4973145;28;20459;-86
2022/08/18 02:11:35;;;;;;;7.53;4.50;;;;;;;23.25;43.58;101174.09;4971202;28;20033;-86
2022/08/18 02:14:00;;;;;;;5.45;3.85;;;;;;;23.25;43.91;101168.53;4993067;28;20393;-86
2022/08/18 02:16:26;;;;;;;7.05;3.72;;;;;;;23.24;43.89;101167.72;4992463;28;20440;-86
2022/08/18 02:18:52;;;;;;;7.00;4.32;;;;;;;23.26;44.08;101162.56;4984753;28;20034;-87
2022/08/18 02:21:20;;;;;;;5.43;4.25;;;;;;;23.25;44.00;101155.38;4973107;28;20030;-85
2022/08/18 02:23:47;;;;;;;9.75;4.88;;;;;;;23.26;44.19;101154.19;4989180;28;20043;-87
2022/08/18 02:26:15;;;;;;;5.45;4.03;;;;;;;23.29;44.34;101151.81;4974132;28;20038;-86
2022/08/18 02:28:41;;;;;;;8.82;3.95;;;;;;;23.25;44.38;101152.59;4989123;28;20034;-86
2022/08/18 02:31:13;;;;;;;7.22;4.30;;;;;;;23.28;44.46;101153.03;4972526;28;20490;-86
2022/08/18 02:33:39;;;;;;;7.43;3.95;;;;;;;23.33;44.62;101147.06;4973054;28;20063;-86
2022/08/18 02:36:06;;;;;;;7.28;3.67;;;;;;;23.30;44.77;101145.06;4973017;28;20114;-86
2022/08/18 02:38:32;;;;;;;12.57;4.22;;;;;;;23.30;44.64;101145.06;4974171;28;20027;-86
2022/08/18 02:41:01;;;;;;;9.68;4.75;;;;;;;23.33;44.63;101135.91;4972828;28;20038;-86
2022/08/18 02:43:27;;;;;;;10.35;4.38;;;;;;;23.35;44.67;101133.50;4988503;28;20122;-86
2022/08/18 02:45:53;;;;;;;6.88;3.72;;;;;;;23.31;44.46;101127.13;4972812;28;20091;-87
2022/08/18 02:48:37;;;;;;;6.45;4.35;;;;;;;23.30;45.00;101119.97;4972791;28;20042;-86
2022/08/18 02:51:03;;;;;;;6.03;3.72;;;;;;;23.32;44.78;101121.16;4973107;28;20516;-86
2022/08/18 02:53:29;;;;;;;5.90;3.90;;;;;;;23.24;44.93;101111.16;4972798;28;20071;-86
2022/08/18 02:56:05;;;;;;;6.90;3.72;;;;;;;23.26;44.74;101104.00;4972628;28;20023;-87
2022/08/18 02:58:30;;;;;;;5.40;4.22;;;;;;;23.28;45.06;101100.84;4972778;28;20023;-85
2022/08/18 03:00:56;;;;;;;7.35;4.20;;;;;;;23.33;44.69;101100.47;4972504;28;20034;-85
2022/08/18 03:03:21;;;;;;;5.07;3.83;;;;;;;23.30;44.98;101100.44;4972509;28;20038;-86
2022/08/18 03:05:47;;;;;;;6.78;3.63;;;;;;;23.34;44.80;101098.47;4974244;28;20062;-86
2022/08/18 03:08:12;;;;;;;6.82;3.80;;;;;;;23.25;44.97;101091.25;4976060;28;20077;-87
2022/08/18 03:10:38;;;;;;;4.50;3.35;;;;;;;23.21;44.99;101090.47;4975775;28;20508;-85
2022/08/18 03:13:04;;;;;;;5.32;3.85;;;;;;;23.23;45.11;101085.28;4975868;28;20537;-87
2022/08/18 03:15:30;;;;;;;5.68;3.55;;;;;;;23.23;45.13;101093.66;4976092;28;20478;-86
2022/08/18 03:17:56;;;;;;;5.28;3.70;;;;;;;23.24;45.25;101089.66;4975902;28;20118;-86
2022/08/18 03:20:23;;;;;;;7.68;3.90;;;;;;;23.26;45.05;101086.47;4975829;28;20038;-86
2022/08/18 03:22:48;;;;;;;6.43;4.80;;;;;;;23.25;44.94;101082.09;4975870;28;20061;-85
2022/08/18 03:25:14;;;;;;;7.15;3.88;;;;;;;23.20;45.23;101076.88;4975514;28;20062;-85
2022/08/18 03:27:40;;;;;;;7.28;4.05;;;;;;;23.18;45.07;101076.50;4975647;28;20038;-86
2022/08/18 03:30:06;;;;;;;6.63;3.95;;;;;;;23.19;45.27;101067.72;4975199;28;20059;-86
2022/08/18 03:32:31;;;;;;;6.93;4.20;;;;;;;23.15;45.41;101066.94;4975667;28;20515;-87
2022/08/18 03:34:58;;;;;;;7.28;4.03;;;;;;;23.19;45.13;101069.72;4975670;28;20035;-85
2022/08/18 03:37:24;;;;;;;5.45;4.10;;;;;;;23.06;45.16;101063.69;4975656;28;20066;-86
2022/08/18 03:39:51;;;;;;;6.30;3.83;;;;;;;23.12;44.89;101062.13;4975499;28;20071;-87
2022/08/18 03:42:17;;;;;;;7.13;4.35;;;;;;;23.08;45.01;101055.75;4974937;28;20113;-85
2022/08/18 03:44:42;;;;;;;5.72;3.63;;;;;;;23.06;44.90;101058.13;4975380;28;20126;-86
2022/08/18 03:47:09;;;;;;;11.60;4.57;;;;;;;23.03;45.13;101061.69;4975059;28;20086;-87
2022/08/18 03:49:36;;;;;;;7.68;4.70;;;;;;;23.10;44.89;101055.34;4975401;28;20033;-85
2022/08/18 03:52:03;;;;;;;7.13;4.80;;;;;;;23.10;44.68;101055.34;4974974;28;20022;-85
2022/08/18 03:54:30;;;;;;;7.28;4.05;;;;;;;23.06;44.72;101052.56;4976482;28;20085;-85
2022/08/18 03:56:57;;;;;;;6.95;4.05;;;;;;;23.02;44.81;101048.13;4991284;28;20058;-86
2022/08/18 03:59:25;;;;;;;5.75;4.75;;;;;;;22.97;44.76;101047.34;4991353;28;20022;-86
2022/08/18 04:01:53;;;;;;;9.07;4.70;;;;;;;22.96;44.66;101044.91;4991201;28;20023;-86
2022/08/18 04:04:25;;;;;;;8.38;4.45;;;;;;;22.95;44.95;101037.75;4991302;28;20390;-86
2022/08/18 04:07:04;;;;;;;8.68;5.05;;;;;;;22.93;44.80;101054.88;4990882;28;20030;-85
2022/08/18 04:09:31;;;;;;;11.32;5.45;;;;;;;22.90;45.20;101052.88;4974957;28;20482;-85
2022/08/18 04:12:02;;;;;;;5.82;4.00;;;;;;;22.96;44.70;101034.56;4990914;28;20038;-86
2022/08/18 04:14:31;;;;;;;6.18;4.53;;;;;;;22.87;44.89;101041.69;4990646;28;20031;-84
2022/08/18 04:16:57;;;;;;;7.22;4.70;;;;;;;22.91;44.84;101034.16;4974854;28;20037;-86
2022/08/18 04:19:23;;;;;;;6.50;4.30;;;;;;;22.91;44.70;101029.38;4974583;28;20399;-85
2022/08/18 04:21:52;;;;;;;7.78;5.40;;;;;;;22.87;44.93;101033.34;4975932;28;20031;-85
2022/08/18 04:24:19;;;;;;;9.98;4.95;;;;;;;22.96;44.88;101031.00;4974570;28;20034;-85
2022/08/18 04:26:46;;;;;;;7.95;5.15;;;;;;;22.98;44.64;101029.44;4974552;28;20097;-85
2022/08/18 04:29:15;;;;;;;10.70;4.80;;;;;;;22.98;44.66;101025.84;4974506;28;20048;-85
2022/08/18 04:31:41;;;;;;;7.53;4.60;;;;;;;22.99;44.95;101021.88;4944093;28;20047;-86
2022/08/18 04:34:07;;;;;;;6.40;4.50;;;;;;;23.03;44.68;101022.66;4935901;29;20030;-85
2022/08/18 04:36:35;;;;;;;7.03;3.95;;;;;;;23.00;44.80;101017.88;4935756;29;20126;-85
2022/08/18 04:39:02;;;;;;;7.13;4.53;;;;;;;23.04;44.85;101035.41;4935782;29;20454;-86
2022/08/18 04:41:28;;;;;;;7.47;4.15;;;;;;;23.01;45.03;101027.84;4935829;29;20027;-85
2022/08/18 04:43:58;;;;;;;6.28;4.40;;;;;;;23.00;45.08;101034.59;4935652;29;20142;-85
2022/08/18 04:46:24;;;;;;;;;;;;;;;23.02;44.98;101031.41;4936109;29;20497;-85
2022/08/18 04:48:49;;;;;;;8.23;4.90;;;;;;;22.85;45.09;101028.16;4936884;29;20014;-85
2022/08/18 04:51:18;;;;;;;6.05;4.15;;;;;;;23.03;45.05;101017.09;4935801;29;20435;-86
2022/08/18 04:53:45;;;;;;;8.13;3.97;;;;;;;23.10;44.94;101019.91;4935619;29;20119;-85
2022/08/18 04:56:20;;;;;;;6.68;4.55;;;;;;;23.04;45.13;101007.53;4946736;29;20036;-85
2022/08/18 04:58:50;;;;;;;5.43;4.00;;;;;;;23.09;45.13;101007.16;4954732;28;20039;-85
2022/08/18 05:01:19;;;;;;;7.03;3.85;;;;;;;23.06;45.07;101013.53;4954601;28;20023;-86
2022/08/18 05:03:45;;;;;;;6.10;4.50;;;;;;;23.00;45.30;101006.75;4954359;28;20035;-85
2022/08/18 05:06:10;;;;;;;7.30;5.05;;;;;;;23.07;45.46;101011.56;4954615;28;20106;-85
2022/08/18 05:08:36;;;;;;;5.57;4.40;;;;;;;23.11;45.21;100999.22;4954413;28;20055;-85
2022/08/18 05:11:02;;;;;;;6.22;4.32;;;;;;;22.94;46.02;100997.94;4954711;28;20038;-86
2022/08/18 05:13:27;;;;;;;5.85;4.35;;;;;;;23.01;45.88;101001.97;4940618;28;20090;-85
2022/08/18 05:15:56;;;;;;;8.85;4.90;;;;;;;23.01;46.00;101002.75;4952145;29;20105;-85
2022/08/18 05:18:23;;;;;;;8.32;4.85;;;;;;;22.93;46.44;101010.28;4954463;28;20041;-86
2022/08/18 05:20:52;;;;;;;6.55;4.07;;;;;;;22.99;46.37;101010.72;4954281;28;20027;-86
2022/08/18 05:23:21;;;;;;;4.97;3.65;;;;;;;22.93;46.67;100999.16;4954196;28;20034;-86
2022/08/18 05:25:47;;;;;;;8.63;4.25;;;;;;;23.01;46.63;101004.75;4954325;28;20612;-85
2022/08/18 05:28:14;;;;;;;9.52;4.95;;;;;;;22.91;46.97;101000.72;4953762;28;20086;-86
2022/08/18 05:30:41;;;;;;;6.70;4.72;;;;;;;23.00;46.72;100994.78;4965497;28;20078;-86
2022/08/18 05:33:10;;;;;;;9.02;5.22;;;;;;;22.99;47.17;100994.00;4973460;28;20445;-85
2022/08/18 05:35:42;;;;;;;6.57;4.45;;;;;;;22.79;47.81;100985.09;4973372;28;20066;-85
2022/08/18 05:38:16;;;;;;;6.07;4.57;;;;;;;22.85;47.72;100991.13;4973258;28;20042;-86
2022/08/18 05:40:44;;;;;;;8.73;4.32;;;;;;;22.86;47.48;100981.59;4973096;28;20034;-85
2022/08/18 05:43:11;;;;;;;6.90;4.47;;;;;;;22.84;47.90;100984.75;4989392;28;20027;-85
2022/08/18 05:45:39;;;;;;;7.35;4.88;;;;;;;22.75;48.31;100995.44;4973459;28;20030;-85
2022/08/18 05:48:06;;;;;;;7.15;3.75;;;;;;;22.88;48.05;100999.50;4989295;28;20112;-85
2022/08/18 05:50:36;;;;;;;6.85;5.03;;;;;;;22.92;48.23;100993.97;4973136;28;20050;-85
2022/08/18 05:53:17;;;;;;;5.18;4.15;;;;;;;22.86;48.86;100982.38;4973177;28;20050;-86
2022/08/18 05:59:01;;;;;;;5.93;4.10;;;;;;;22.95;48.46;100970.88;4914876;29;20028;-85
2022/08/18 06:01:40;;;;;;;8.68;4.60;;;;;;;22.97;48.82;100974.91;4961785;28;20053;-86
2022/08/18 06:04:28;;;;;;;9.07;4.20;;;;;;;23.02;48.73;100965.34;4973260;28;20035;-85
2022/08/18 06:06:56;;;;;;;6.18;4.53;;;;;;;22.93;49.04;100951.78;4972764;28;20038;-85
2022/08/18 06:09:33;;;;;;;5.43;3.67;;;;;;;22.86;49.51;100948.97;4973074;28;20027;-85
2022/08/18 06:12:29;;;;;;;7.55;4.50;;;;;;;22.99;49.18;100955.00;4973009;28;20077;-86
2022/08/18 06:15:23;;;;;;;6.47;4.55;;;;;;;23.05;48.78;100956.22;4974266;28;20450;-86
2022/08/18 06:18:09;;;;;;;5.93;4.10;;;;;;;23.11;48.82;100957.41;4965201;28;20098;-85
2022/08/18 06:20:35;;;;;;;13.10;4.50;;;;;;;22.93;49.23;100953.78;4972888;28;20042;-86
2022/08/18 06:23:13;;;;;;;7.00;4.82;;;;;;;23.07;49.41;100956.59;4972933;28;20034;-85
2022/08/18 06:26:01;;;;;;;7.72;4.70;;;;;;;23.12;49.33;100941.47;4972843;28;20027;-86
2022/08/18 06:28:54;;;;;;;8.10;4.00;;;;;;;23.04;49.56;100942.66;4972585;28;20418;-84
2022/08/18 06:32:04;;;;;;;5.60;3.97;;;;;;;23.07;49.34;100953.81;4965867;28;20074;-87
2022/08/18 06:34:55;;;;;;;7.13;4.72;;;;;;;23.06;49.52;100949.44;4945529;28;20560;-85
2022/08/18 06:38:37;;;;;;;7.22;4.47;;;;;;;23.25;49.00;100948.28;4972815;28;20122;-86
2022/08/18 06:40:26;;;;;;;5.85;4.07;;;;;;;23.36;48.90;100951.91;4974871;28;20512;-86
2022/08/18 06:42:52;;;;;;;7.93;4.03;;;;;;;23.34;48.78;100964.63;4977437;28;20027;-85
2022/08/18 06:45:31;;;;;;;4.68;3.38;;;;;;;23.31;49.14;100960.66;4975989;28;20038;-85
2022/08/18 06:48:06;;;;;;;6.40;3.63;;;;;;;23.37;49.13;100955.50;4976357;28;20041;-85
2022/08/18 06:50:47;;;;;;;7.88;3.78;;;;;;;23.36;48.90;100965.06;4977962;28;20033;-85
2022/08/18 06:53:13;;;;;;;5.93;3.80;;;;;;;23.45;48.94;100957.09;4977855;28;20019;-85
2022/08/18 06:55:43;;;;;;;6.25;4.03;;;;;;;23.41;48.90;100954.28;4976415;28;20031;-85
2022/08/18 06:58:14;;;;;;;4.57;3.33;;;;;;;23.46;49.19;100950.34;4992494;28;20027;-84
2022/08/18 07:00:49;;;;;;;7.00;4.00;;;;;;;23.48;48.86;100957.09;4974368;28;20225;-84
2022/08/18 07:03:19;;;;;;;5.43;3.13;;;;;;;23.50;49.20;100951.13;4975056;28;20031;-84
2022/08/18 07:06:10;;;;;;;6.53;4.00;;;;;;;23.56;49.24;100941.19;4976015;28;20038;-84
2022/08/18 07:08:43;;;;;;;5.93;3.90;;;;;;;23.62;48.90;100936.84;4975800;28;20026;-84
2022/08/18 07:11:27;;;;;;;5.00;3.70;;;;;;;23.59;48.95;100929.25;4976046;28;20037;-84
2022/08/18 07:14:16;;;;;;;5.80;3.85;;;;;;;23.70;48.92;100927.28;4975818;28;20031;-85
2022/08/18 07:16:41;;;;;;;5.20;2.83;;;;;;;23.76;48.78;100933.25;4975615;28;20034;-84
2022/08/18 07:19:15;;;;;;;5.05;3.05;;;;;;;23.85;49.02;100932.84;4975748;28;20031;-83
2022/08/18 07:21:42;;;;;;;5.32;3.25;;;;;;;23.94;48.63;100934.03;4972876;28;20541;-85
2022/08/18 07:24:20;;;;;;;5.03;3.42;;;;;;;24.00;48.97;100937.22;4956306;29;20053;-84
2022/08/18 07:27:00;;;;;;;5.07;3.20;;;;;;;24.18;48.79;100951.16;4972218;28;20031;-85
2022/08/18 07:29:27;;;;;;;4.20;2.17;;;;;;;24.18;48.73;100937.19;4972068;28;20040;-85
2022/08/18 07:31:54;;;;;;;6.00;2.47;;;;;;;24.10;49.10;100942.00;4957385;28;20082;-86
2022/08/18 07:34:26;;;;;;;5.63;3.05;;;;;;;24.10;49.32;100936.41;4972491;28;20097;-86
2022/08/18 07:37:03;;;;;;;6.18;2.75;;;;;;;24.27;49.10;100937.59;4956628;29;20043;-86
2022/08/18 07:39:40;;;;;;;4.10;2.13;;;;;;;24.30;48.99;100934.00;4956095;29;20063;-84
2022/08/18 07:42:13;;;;;;;3.28;2.20;;;;;;;24.37;49.05;100931.22;4971872;28;20035;-84
2022/08/18 07:44:44;;;;;;;4.25;1.83;;;;;;;24.33;49.03;100914.50;4975320;28;20444;-86
2022/08/18 07:47:32;;;;;;;2.42;1.90;;;;;;;24.43;49.32;100928.81;4975310;28;20101;-86
2022/08/18 07:49:58;;;;;;;6.13;2.22;;;;;;;24.61;48.77;100923.97;4976745;28;20054;-84
2022/08/18 07:52:50;;;;;;;2.75;1.85;;;;;;;24.43;49.35;100914.88;4974711;28;20461;-84
2022/08/18 07:55:32;;;;;;;4.03;1.80;;;;;;;24.35;49.35;100926.06;4968965;28;20486;-84
2022/08/18 07:58:18;;;;;;;2.58;1.67;;;;;;;24.35;49.48;100928.84;4975122;28;20027;-84
2022/08/18 08:01:04;;;;;;;2.78;1.70;;;;;;;24.66;48.86;100920.78;4975997;28;20023;-84
2022/08/18 08:04:02;;;;;;;2.70;1.83;;;;;;;24.67;48.79;100911.19;4976118;28;20027;-83
2022/08/18 08:06:31;;;;;;;4.40;1.98;;;;;;;24.78;48.34;100925.09;4942891;28;20110;-84
2022/08/18 08:09:18;;;;;;;2.75;1.70;;;;;;;24.76;48.93;100922.72;4974337;28;20089;-87
2022/08/18 08:11:58;;;;;;;3.25;1.60;;;;;;;24.79;49.01;100913.53;4976485;28;20034;-83
2022/08/18 08:14:44;;;;;;;4.97;2.22;;;;;;;24.81;48.90;100907.53;4974670;28;20476;-83
2022/08/18 08:17:22;;;;;;;1.75;1.27;;;;;;;24.92;48.79;100911.84;4975762;28;20023;-86
2022/08/18 08:19:51;;;;;;;5.10;2.03;;;;;;;25.15;48.33;100902.19;4975835;28;20027;-83
2022/08/18 08:22:37;;;;;;;3.00;1.30;;;;;;;25.05;48.63;100915.03;4974446;28;20066;-83
2022/08/18 08:25:14;;;;;;;2.60;1.85;;;;;;;24.99;48.72;100921.41;4975525;28;20073;-85
2022/08/18 08:28:15;;;;;;;3.15;1.40;;;;;;;24.94;48.68;100927.41;4974277;28;20026;-82
2022/08/18 08:30:58;;;;;;;2.03;1.10;;;;;;;24.81;49.13;100927.88;4975096;28;20043;-82
2022/08/18 08:33:55;;;;;;;3.03;1.27;;;;;;;25.05;48.62;100926.19;4974174;28;20027;-83
2022/08/18 08:36:28;;;;;;;3.03;1.30;;;;;;;25.15;48.69;100916.94;4975238;28;20023;-84
2022/08/18 08:39:15;;;;;;;4.60;1.67;;;;;;;25.31;48.54;100912.84;4975589;28;20027;-86
2022/08/18 08:42:04;;;;;;;4.78;1.40;;;;;;;25.39;48.44;100909.63;4975174;28;20069;-85
2022/08/18 08:44:36;;;;;;;2.17;1.35;;;;;;;25.36;48.71;100916.03;4990527;28;20058;-81
2022/08/18 08:47:22;;;;;;;3.42;1.88;;;;;;;25.42;48.80;100903.22;4974206;28;20179;-82
2022/08/18 08:49:57;;;;;;;4.07;1.30;;;;;;;25.49;49.20;100904.38;4973409;28;20035;-86
2022/08/18 08:52:46;;;;;;;1.52;0.95;;;;;;;25.49;49.34;100888.38;4990104;28;20117;-85
2022/08/18 08:55:32;;;;;;;1.17;1.00;;;;;;;25.48;49.71;100884.00;4974076;28;20031;-85
2022/08/18 08:58:12;;;;;;;2.90;1.23;;;;;;;25.46;50.49;100889.97;4975025;28;20113;-83
2022/08/18 09:00:41;;;;;;;6.63;1.40;;;;;;;25.63;49.80;100885.47;4975034;28;20031;-83
2022/08/18 09:03:21;;;;;;;5.18;1.70;;;;;;;25.70;49.71;100888.19;4974323;28;20486;-82
2022/08/18 09:05:59;;;;;;;4.18;1.10;;;;;;;25.67;50.64;100877.03;4974894;28;20035;-83
2022/08/18 09:08:49;;;;;;;4.10;1.67;;;;;;;25.61;50.93;100868.28;4974302;28;20023;-82
2022/08/18 09:11:21;;;;;;;13.60;12.35;;;;;;;25.75;51.12;100869.41;4973461;28;20085;-83
2022/08/18 09:14:30;;;;;;;15.35;4.28;;;;;;;25.75;51.11;100861.78;4974660;28;20029;-81
2022/08/18 09:17:09;;;;;;;1.63;1.07;;;;;;;25.88;50.36;100865.66;4973387;28;20034;-82
2022/08/18 09:20:00;;;;;;;8.55;1.65;;;;;;;25.93;50.62;100867.22;4974565;28;20474;-82
2022/08/18 09:22:45;;;;;;;5.97;1.85;;;;;;;25.98;50.25;100855.56;4973285;28;20398;-82
2022/08/18 09:25:30;;;;;;;2.47;1.13;;;;;;;26.18;49.63;100856.56;4973193;28;20025;-85
2022/08/18 09:28:12;;;;;;;2.30;0.75;;;;;;;26.20;49.65;100854.13;4974173;28;20038;-82
2022/08/18 09:30:59;;;;;;;1.88;0.90;;;;;;;26.21;49.41;100849.31;4974022;28;20047;-81
2022/08/18 09:33:53;;;;;;;4.22;0.90;;;;;;;26.33;49.16;100853.59;4973804;28;20070;-82
2022/08/18 09:36:43;;;;;;;2.35;1.20;;;;;;;26.52;48.63;100853.75;4972547;28;20550;-82
2022/08/18 09:42:05;;;;;;;1.27;0.70;;;;;;;26.47;48.97;100856.25;4972597;28;20544;-83
2022/08/18 09:44:46;;;;;;;3.78;1.00;;;;;;;26.40;48.66;100857.13;4972051;28;20123;-85
2022/08/18 09:47:22;;;;;;;1.17;0.70;;;;;;;26.50;48.36;100850.59;4973067;28;20030;-84
2022/08/18 09:50:31;;;;;;;1.55;0.88;;;;;;;26.50;48.27;100845.00;4984658;28;20023;-85
2022/08/18 09:53:14;;;;;;;0.80;0.60;;;;;;;26.47;48.08;100836.66;4953722;29;20083;-84
2022/08/18 09:55:52;;;;;;;0.90;0.73;;;;;;;26.63;47.88;100833.25;4953565;29;20107;-83
2022/08/18 09:58:25;;;;;;;5.10;1.17;;;;;;;26.66;47.93;100826.78;4953528;29;20085;-83
2022/08/18 10:01:21;;;;;;;2.92;0.80;;;;;;;26.79;47.97;100827.81;4953861;29;20027;-83
2022/08/18 10:04:29;;;;;;;0.88;0.65;;;;;;;26.99;47.42;100805.50;4954909;28;20109;-83
2022/08/18 10:07:26;;;;;;;3.28;1.02;;;;;;;27.09;47.47;100794.13;4945689;28;20114;-82
2022/08/18 10:10:10;;;;;;;1.67;0.80;;;;;;;27.46;47.22;100783.91;4953167;29;20031;-86
2022/08/18 10:12:47;;;;;;;3.90;1.50;;;;;;;27.57;47.04;100786.50;4965906;28;20086;-84
2022/08/18 10:15:35;;;;;;;2.40;0.80;;;;;;;27.74;46.25;100796.66;4975412;28;20355;-86
2022/08/18 10:18:30;;;;;;;4.13;0.90;;;;;;;27.76;45.97;100793.41;4978111;28;20031;-83
2022/08/18 10:21:26;;;;;;;5.53;0.90;;;;;;;27.90;45.65;100790.34;4976692;28;20412;-83
2022/08/18 10:24:03;;;;;;;1.75;0.50;;;;;;;27.98;44.93;100788.97;4992924;28;20031;-83
2022/08/18 10:26:29;;;;;;;4.63;0.90;;;;;;;27.98;44.93;100788.97;4976461;28;20023;-83
2022/08/18 10:28:57;;;;;;;4.05;0.75;;;;;;;27.99;44.62;100795.38;4977636;28;20385;-84
2022/08/18 10:31:23;;;;;;;13.00;1.52;;;;;;;27.88;44.72;100789.97;4976641;28;20058;-83
2022/08/18 10:34:09;;;;;;;2.90;0.63;;;;;;;27.91;44.24;100794.75;4976692;28;20046;-91
2022/08/18 10:36:44;;;;;;;0.30;0.30;;;;;;;27.81;44.59;100790.09;4977572;28;20023;-84
2022/08/18 10:39:14;;;;;;;0.73;0.70;;;;;;;27.84;44.59;100794.88;4977680;28;20034;-84
2022/08/18 10:42:04;;;;;;;1.92;0.60;;;;;;;27.88;44.63;100796.38;4975837;28;20121;-84
2022/08/18 10:44:33;;;;;;;;;;;;;;;27.90;44.76;100782.72;4978035;28;20026;-85
2022/08/18 10:47:00;;;;;;;3.35;0.75;;;;;;;27.94;44.79;100785.44;4976184;28;20440;-84
2022/08/18 10:49:30;;;;;;;1.40;0.55;;;;;;;28.18;44.24;100766.50;4977255;28;20031;-92
2022/08/18 10:52:11;;;;;;;;;;;;;;;27.92;44.85;100774.66;4992660;28;20019;-84
2022/08/18 10:54:54;;;;;;;4.47;0.80;;;;;;;28.00;45.02;100752.03;4987444;28;19918;-81
2022/08/18 10:57:32;;;;;;;4.00;0.65;;;;;;;28.17;44.29;100757.28;4976000;28;20031;-83
2022/08/18 11:00:17;;;;;;;2.00;0.60;;;;;;;28.17;44.67;100760.09;4976851;28;20046;-86
2022/08/18 11:02:48;;;;;;;2.42;0.60;;;;;;;28.38;44.39;100753.25;4977313;28;20065;-81
2022/08/18 11:05:21;;;;;;;2.97;0.60;;;;;;;28.33;44.04;100750.94;4977076;28;20551;-88
2022/08/18 11:07:50;;;;;;;0.70;0.50;;;;;;;28.48;44.00;100749.41;4976684;28;20393;-83
2022/08/18 11:10:23;;;;;;;18.50;2.63;;;;;;;28.46;44.19;100748.25;4975002;28;20162;-83
2022/08/18 11:13:23;;;;;;;4.13;0.68;;;;;;;28.58;43.87;100753.22;4977194;28;20272;-82
2022/08/18 11:16:11;;;;;;;2.33;1.13;;;;;;;28.57;44.49;100736.78;4976681;28;20383;-84
2022/08/18 11:18:47;;;;;;;4.60;0.93;;;;;;;28.46;45.02;100726.56;4976756;28;20031;-86
2022/08/18 11:21:39;;;;;;;1.17;0.55;;;;;;;29.06;43.43;100709.50;4976252;28;20034;-88
2022/08/18 11:24:25;;;;;;;2.55;0.75;;;;;;;29.03;43.87;100713.22;4976944;28;20029;-85
2022/08/18 11:27:03;;;;;;;0.40;0.40;;;;;;;29.27;43.37;100708.16;4975313;28;20090;-83
2022/08/18 11:29:33;;;;;;;3.22;0.50;;;;;;;29.39;43.38;100715.84;4991425;28;20023;-90
2022/08/18 11:32:06;;;;;;;89.38;10.95;;;;;;;29.55;43.41;100723.53;4977118;28;20054;-88
2022/08/18 11:34:48;;;;;;;2.17;0.65;;;;;;;29.70;43.23;100719.09;4992635;28;20018;-89
2022/08/18 11:37:33;;;;;;;2.15;0.43;;;;;;;29.86;42.74;100717.44;4977681;28;20027;-88
2022/08/18 11:40:02;;;;;;;2.35;0.80;;;;;;;29.72;42.92;100699.72;4969266;28;20042;-89
2022/08/18 11:42:32;;;;;;;1.85;0.50;;;;;;;29.92;42.27;100707.97;4975960;28;20034;-81
2022/08/18 11:45:06;;;;;;;;;;;;;;;30.01;41.96;100704.53;4977618;28;20037;-83
2022/08/18 11:47:32;;;;;;;0.75;0.40;;;;;;;30.21;41.86;100690.25;4971931;28;19918;-85
2022/08/18 11:50:07;;;;;;;3.40;0.63;;;;;;;30.21;41.77;100688.22;4977166;28;20491;-89
2022/08/18 11:52:46;;;;;;;0.40;0.40;;;;;;;30.24;41.92;100690.16;4962150;28;20087;-82
2022/08/18 11:55:26;;;;;;;0.68;0.45;;;;;;;30.17;41.45;100690.38;4969416;28;20035;-83
2022/08/18 11:57:57;;;;;;;0.52;0.45;;;;;;;30.36;41.59;100691.38;4975821;28;20272;-84
2022/08/18 12:00:52;;;;;;;3.90;0.68;;;;;;;30.11;41.27;100683.72;4976362;28;20030;-92
2022/08/18 12:03:49;;;;;;;0.60;0.45;;;;;;;30.25;41.29;100693.75;4976575;28;20034;-87
2022/08/18 12:06:26;;;;;;;2.28;0.45;;;;;;;30.02;41.15;100689.97;4974387;28;20070;-90
2022/08/18 12:09:03;;;;;;;8.88;1.30;;;;;;;29.92;41.53;100691.06;4976461;28;20031;-90
2022/08/18 12:11:31;;;;;;;13.80;1.77;;;;;;;30.16;41.00;100685.19;4976489;28;20027;-85